createdAt,value
2023-01-18T00:00:41.415Z,86.44
2023-01-18T00:03:13.683Z,86.58
2023-01-18T00:05:42.344Z,86.72
2023-01-18T00:08:19.584Z,86.52
2023-01-18T00:10:47.025Z,87.17
2023-01-18T00:13:14.290Z,87.17
2023-01-18T00:15:41.507Z,86.76
2023-01-18T00:18:08.804Z,87.24
2023-01-18T00:20:36.028Z,87.76
2023-01-18T00:23:03.276Z,87.45
2023-01-18T00:25:31.075Z,86.47
2023-01-18T00:27:58.596Z,86.74
2023-01-18T00:30:28.568Z,86.58
2023-01-18T00:32:58.333Z,86.62
2023-01-18T00:35:26.143Z,87.01
2023-01-18T00:37:54.344Z,87.13
2023-01-18T00:40:22.967Z,87.72
2023-01-18T00:43:08.867Z,87.53
2023-01-18T00:45:36.168Z,87.93
2023-01-18T00:48:03.514Z,88.58
2023-01-18T00:50:30.819Z,88.71
2023-01-18T00:53:00.189Z,88.55
2023-01-18T00:55:28.093Z,88.21
2023-01-18T00:57:55.395Z,88.75
2023-01-18T01:00:23.788Z,88.87
2023-01-18T01:02:51.797Z,88.87
2023-01-18T01:05:40.502Z,88.75
2023-01-18T01:08:08.118Z,88.92
2023-01-18T01:10:35.915Z,89.23
2023-01-18T01:13:21.931Z,89.71
2023-01-18T01:16:07.850Z,89.23
2023-01-18T01:18:53.419Z,89.96
2023-01-18T01:21:39.110Z,90.24
2023-01-18T01:24:25.167Z,88.99
2023-01-18T01:26:52.498Z,89.90
2023-01-18T01:29:19.733Z,89.61
2023-01-18T01:31:47.037Z,89.89
2023-01-18T01:34:14.300Z,90.11
2023-01-18T01:36:41.524Z,90.44
2023-01-18T01:39:11.064Z,91.07
2023-01-18T01:41:38.919Z,91.12
2023-01-18T01:44:19.563Z,91.63
2023-01-18T01:46:59.446Z,91.94
2023-01-18T01:49:34.828Z,92.59
2023-01-18T01:52:15.455Z,92.77
2023-01-18T01:54:48.669Z,93.43
2023-01-18T01:57:50.028Z,93.66
2023-01-18T02:00:20.952Z,93.73
2023-01-18T02:02:53.273Z,93.08
2023-01-18T02:05:20.859Z,93.60
2023-01-18T02:07:48.390Z,94.24
2023-01-18T02:10:16.388Z,94.62
2023-01-18T02:12:46.439Z,94.90
2023-01-18T02:15:13.776Z,95.27
2023-01-18T02:17:40.959Z,95.39
2023-01-18T02:20:37.948Z,95.28
2023-01-18T02:23:32.233Z,95.52
2023-01-18T02:26:44.872Z,95.45
2023-01-18T02:29:20.445Z,95.56
2023-01-18T02:32:25.303Z,94.02
2023-01-18T02:35:06.005Z,95.17
2023-01-18T02:37:33.165Z,95.32
2023-01-18T02:40:32.676Z,95.84
2023-01-18T02:43:23.085Z,95.91
2023-01-18T02:46:09.000Z,95.23
2023-01-18T02:48:40.389Z,95.67
2023-01-18T02:51:08.047Z,96.44
2023-01-18T02:53:42.329Z,97.28
2023-01-18T02:56:27.955Z,97.54
2023-01-18T02:59:01.281Z,97.24
2023-01-18T03:01:48.486Z,97.93
2023-01-18T03:04:21.811Z,98.96
2023-01-18T03:06:57.350Z,99.29
2023-01-18T03:09:27.323Z,99.22
2023-01-18T03:12:02.489Z,99.52
2023-01-18T03:14:57.172Z,99.72
2023-01-18T03:17:40.757Z,99.78
2023-01-18T03:20:18.027Z,100.00
2023-01-18T03:23:22.214Z,99.90
2023-01-18T03:25:51.868Z,99.99
2023-01-18T03:28:47.258Z,100.00
2023-01-18T03:31:41.858Z,100.00
2023-01-18T03:34:19.405Z,100.00
2023-01-18T03:36:49.165Z,100.00
2023-01-18T03:39:38.403Z,99.61
2023-01-18T03:42:37.492Z,98.54
2023-01-18T03:45:37.953Z,99.01
2023-01-18T03:48:07.762Z,99.14
2023-01-18T03:50:52.862Z,99.32
2023-01-18T03:53:52.957Z,98.88
2023-01-18T03:56:34.652Z,98.98
2023-01-18T03:59:04.473Z,98.84
2023-01-18T04:01:32.322Z,98.42
2023-01-18T04:03:59.648Z,98.11
2023-01-18T04:06:27.928Z,97.92
2023-01-18T04:08:55.435Z,96.79
2023-01-18T04:11:22.629Z,97.24
2023-01-18T04:13:49.830Z,96.90
2023-01-18T04:16:17.184Z,97.47
2023-01-18T04:18:44.461Z,97.34
2023-01-18T04:21:11.729Z,97.62
2023-01-18T04:23:39.001Z,97.75
2023-01-18T04:26:06.334Z,97.90
2023-01-18T04:28:34.606Z,97.82
2023-01-18T04:31:02.059Z,97.93
2023-01-18T04:33:29.340Z,97.92
2023-01-18T04:35:56.545Z,97.56
2023-01-18T04:38:23.933Z,97.70
2023-01-18T04:40:51.265Z,97.10
2023-01-18T04:43:18.607Z,96.79
2023-01-18T04:45:55.710Z,96.80
2023-01-18T04:48:24.322Z,96.53
2023-01-18T04:50:52.228Z,96.74
2023-01-18T04:53:20.045Z,96.28
2023-01-18T04:55:47.360Z,95.15
2023-01-18T04:58:15.216Z,94.23
2023-01-18T05:00:42.868Z,92.39
2023-01-18T05:03:11.769Z,91.59
2023-01-18T05:05:39.351Z,90.36
2023-01-18T05:08:06.555Z,90.16
2023-01-18T05:10:33.892Z,89.05
2023-01-18T05:13:01.751Z,87.78
2023-01-18T05:15:29.212Z,87.20
2023-01-18T05:17:56.455Z,86.85
2023-01-18T05:20:23.829Z,86.25
2023-01-18T05:22:51.095Z,85.50
2023-01-18T05:25:18.293Z,84.59
2023-01-18T05:27:45.636Z,84.56
2023-01-18T05:30:13.991Z,84.18
2023-01-18T05:32:41.219Z,83.65
2023-01-18T05:35:08.939Z,83.09
2023-01-18T05:37:36.223Z,81.96
2023-01-18T05:40:03.803Z,83.05
2023-01-18T05:42:31.158Z,85.56
2023-01-18T05:44:58.353Z,88.22
2023-01-18T05:47:25.660Z,90.15
2023-01-18T05:49:52.880Z,91.45
2023-01-18T05:52:20.113Z,93.43
2023-01-18T05:54:47.873Z,95.47
2023-01-18T05:57:15.203Z,96.47
2023-01-18T05:59:42.394Z,97.12
2023-01-18T06:02:09.695Z,97.56
2023-01-18T06:04:37.020Z,97.89
2023-01-18T06:07:04.339Z,98.77
2023-01-18T06:09:31.666Z,98.80
2023-01-18T06:11:58.979Z,99.08
2023-01-18T06:14:26.227Z,99.88
2023-01-18T06:16:53.494Z,99.39
2023-01-18T06:19:20.778Z,100.00
2023-01-18T06:21:48.105Z,99.91
2023-01-18T06:24:15.355Z,99.94
2023-01-18T06:26:42.641Z,100.00
2023-01-18T06:29:09.926Z,100.00
2023-01-18T06:31:37.278Z,100.00
2023-01-18T06:34:09.432Z,100.00
2023-01-18T06:36:38.474Z,100.00
2023-01-18T06:39:06.826Z,100.00
2023-01-18T06:41:34.081Z,100.00
2023-01-18T06:44:01.494Z,100.00
2023-01-18T06:46:29.072Z,100.00
2023-01-18T06:48:56.620Z,100.00
2023-01-18T06:51:24.210Z,100.00
2023-01-18T06:53:51.477Z,100.00
2023-01-18T06:56:18.841Z,100.00
2023-01-18T06:58:46.103Z,100.00
2023-01-18T07:01:13.457Z,100.00
2023-01-18T07:03:40.780Z,100.00
2023-01-18T07:06:08.043Z,100.00
2023-01-18T07:08:40.150Z,100.00
2023-01-18T07:11:09.844Z,100.00
2023-01-18T07:13:40.212Z,100.00
2023-01-18T07:16:08.575Z,100.00
2023-01-18T07:18:35.820Z,100.00
2023-01-18T07:21:10.096Z,99.86
2023-01-18T07:23:40.288Z,99.45
2023-01-18T07:26:10.415Z,99.54
2023-01-18T07:28:38.207Z,99.29
2023-01-18T07:31:08.092Z,99.09
2023-01-18T07:33:36.047Z,98.43
2023-01-18T07:36:06.327Z,98.33
2023-01-18T07:38:34.221Z,98.21
2023-01-18T07:41:03.418Z,97.59
2023-01-18T07:43:33.001Z,97.41
2023-01-18T07:46:01.740Z,96.60
2023-01-18T07:48:29.329Z,95.54
2023-01-18T07:51:07.705Z,95.49
2023-01-18T07:53:36.566Z,95.71
2023-01-18T07:56:09.476Z,95.27
2023-01-18T07:58:37.555Z,95.04
2023-01-18T08:01:07.313Z,95.65
2023-01-18T08:03:36.388Z,94.48
2023-01-18T08:06:05.765Z,94.07
2023-01-18T08:08:34.823Z,93.04
2023-01-18T08:11:03.948Z,94.45
2023-01-18T08:13:31.334Z,94.09
2023-01-18T08:16:00.602Z,94.49
2023-01-18T08:18:28.522Z,93.71
2023-01-18T08:20:56.207Z,93.84
2023-01-18T08:23:23.848Z,93.43
2023-01-18T08:25:51.312Z,93.89
2023-01-18T08:28:19.328Z,94.05
2023-01-18T08:30:48.404Z,92.93
2023-01-18T08:33:15.807Z,93.34
2023-01-18T08:35:47.809Z,92.39
2023-01-18T08:38:16.239Z,93.50
2023-01-18T08:40:43.618Z,92.25
2023-01-18T08:43:11.914Z,92.15
2023-01-18T08:45:39.164Z,91.51
2023-01-18T08:48:10.021Z,91.77
2023-01-18T08:50:39.271Z,92.55
2023-01-18T08:53:06.568Z,93.12
2023-01-18T08:55:35.558Z,92.60
2023-01-18T08:58:02.786Z,91.66
2023-01-18T09:00:30.361Z,91.93
2023-01-18T09:02:58.542Z,91.63
2023-01-18T09:05:27.195Z,91.77
2023-01-18T09:07:55.785Z,91.87
2023-01-18T09:10:23.484Z,92.38
2023-01-18T09:12:52.933Z,91.66
2023-01-18T09:15:21.537Z,89.40
2023-01-18T09:17:48.892Z,89.69
2023-01-18T09:20:18.732Z,89.43
2023-01-18T09:22:48.116Z,88.51
2023-01-18T09:25:18.184Z,88.78
2023-01-18T09:27:46.685Z,88.96
2023-01-18T09:30:16.136Z,87.94
2023-01-18T09:32:43.422Z,88.74
2023-01-18T09:35:10.712Z,87.72
2023-01-18T09:37:37.986Z,87.36
2023-01-18T09:40:05.778Z,87.36
2023-01-18T09:42:41.205Z,85.52
2023-01-18T09:45:23.887Z,85.55
2023-01-18T09:48:00.051Z,85.83
2023-01-18T09:50:27.681Z,86.29
2023-01-18T09:53:04.155Z,86.30
2023-01-18T09:56:18.496Z,84.40
2023-01-18T09:58:55.572Z,85.19
2023-01-18T10:01:26.745Z,84.46
2023-01-18T10:04:33.011Z,83.87
2023-01-18T10:07:03.573Z,83.76
2023-01-18T10:09:40.615Z,86.14
2023-01-18T10:12:34.311Z,84.84
2023-01-18T10:15:17.566Z,84.72
2023-01-18T10:17:45.910Z,84.85
2023-01-18T10:20:42.633Z,83.27
2023-01-18T10:23:23.408Z,83.31
2023-01-18T10:25:56.744Z,82.27
2023-01-18T10:28:42.250Z,82.48
2023-01-18T10:31:17.063Z,83.48
2023-01-18T10:33:46.110Z,80.22
2023-01-18T10:36:26.561Z,80.83
2023-01-18T10:38:55.540Z,80.15
2023-01-18T10:41:31.665Z,79.89
2023-01-18T10:43:59.018Z,79.97
2023-01-18T10:46:26.454Z,80.55
2023-01-18T10:48:59.448Z,80.88
2023-01-18T10:51:37.789Z,79.70
2023-01-18T10:54:26.907Z,81.19
2023-01-18T10:57:04.760Z,79.71
2023-01-18T10:59:40.058Z,78.86
2023-01-18T11:02:21.112Z,79.86
2023-01-18T11:04:56.872Z,80.15
2023-01-18T11:07:26.534Z,79.11
2023-01-18T11:09:59.285Z,78.48
2023-01-18T11:12:42.436Z,78.67
2023-01-18T11:15:15.684Z,78.62
2023-01-18T11:17:44.640Z,78.84
2023-01-18T11:20:40.601Z,76.52
2023-01-18T11:23:10.849Z,77.02
2023-01-18T11:25:40.659Z,76.12
2023-01-18T11:28:30.850Z,75.73
2023-01-18T11:31:13.822Z,75.43
2023-01-18T11:33:51.587Z,75.65
2023-01-18T11:36:21.152Z,76.29
2023-01-18T11:38:48.639Z,75.37
2023-01-18T11:41:20.338Z,73.96
2023-01-18T11:44:19.024Z,74.70
2023-01-18T11:46:52.194Z,74.40
2023-01-18T11:49:53.491Z,74.51
2023-01-18T11:52:46.807Z,73.81
2023-01-18T11:55:23.564Z,72.80
2023-01-18T11:57:52.831Z,73.17
2023-01-18T12:00:28.470Z,73.02
2023-01-18T12:03:21.206Z,71.23
2023-01-18T12:06:00.153Z,70.97
2023-01-18T12:08:39.493Z,71.31
2023-01-18T12:11:34.832Z,70.61
2023-01-18T12:14:35.147Z,70.88
2023-01-18T12:17:45.976Z,71.06
2023-01-18T12:20:58.429Z,70.93
2023-01-18T12:23:42.391Z,70.55
2023-01-18T12:26:47.266Z,70.86
2023-01-18T12:29:54.620Z,70.45
2023-01-18T12:32:48.171Z,70.44
2023-01-18T12:35:37.609Z,69.47
2023-01-18T12:38:29.019Z,68.97
2023-01-18T12:41:14.917Z,69.03
2023-01-18T12:43:57.604Z,70.15
2023-01-18T12:46:36.637Z,69.44
2023-01-18T12:49:19.179Z,69.00
2023-01-18T12:51:50.981Z,67.00
2023-01-18T12:54:45.984Z,68.11
2023-01-18T12:57:15.158Z,67.06
2023-01-18T12:59:57.918Z,66.29
2023-01-18T13:02:55.825Z,65.79
2023-01-18T13:05:52.570Z,62.49
2023-01-18T13:08:31.941Z,62.97
2023-01-18T13:11:23.985Z,62.62
2023-01-18T13:14:15.501Z,64.00
2023-01-18T13:17:09.224Z,64.88
2023-01-18T13:19:43.195Z,66.06
2023-01-18T13:22:28.933Z,64.01
2023-01-18T13:25:14.925Z,65.13
2023-01-18T13:28:03.905Z,64.61
2023-01-18T13:30:35.115Z,64.13
2023-01-18T13:33:12.694Z,64.88
2023-01-18T13:35:51.458Z,65.47
2023-01-18T13:38:27.500Z,65.65
2023-01-18T13:41:03.913Z,65.67
2023-01-18T13:43:37.068Z,67.16
2023-01-18T13:46:07.423Z,67.51
2023-01-18T13:48:46.608Z,67.19
2023-01-18T13:51:42.050Z,67.89
2023-01-18T13:54:18.189Z,67.19
2023-01-18T13:57:09.706Z,67.08
2023-01-18T13:59:40.743Z,67.50
2023-01-18T14:02:29.502Z,67.10
2023-01-18T14:04:59.751Z,67.68
2023-01-18T14:07:27.938Z,69.77
2023-01-18T14:10:03.461Z,70.08
2023-01-18T14:12:50.804Z,70.70
2023-01-18T14:15:24.954Z,71.77
2023-01-18T14:17:58.539Z,72.36
2023-01-18T14:20:51.855Z,73.42
2023-01-18T14:23:46.557Z,74.22
2023-01-18T14:26:18.412Z,75.23
2023-01-18T14:28:54.721Z,75.73
2023-01-18T14:31:30.537Z,76.70
2023-01-18T14:33:57.815Z,77.23
2023-01-18T14:36:27.673Z,77.37
2023-01-18T14:39:12.806Z,77.24
2023-01-18T14:41:50.691Z,76.86
2023-01-18T14:44:22.478Z,77.14
2023-01-18T14:46:59.510Z,77.71
2023-01-18T14:49:35.293Z,77.91
2023-01-18T14:52:04.278Z,78.16
2023-01-18T18:00:08.330Z,87.75
2023-01-18T18:02:35.690Z,87.70
2023-01-18T18:05:04.110Z,87.62
2023-01-18T18:07:31.465Z,87.92
2023-01-18T18:10:01.217Z,87.63
2023-01-18T18:12:29.480Z,88.65
2023-01-18T18:14:56.698Z,87.78
2023-01-18T18:17:26.478Z,87.45
2023-01-18T18:19:53.789Z,87.31
2023-01-18T18:22:21.387Z,88.05
2023-01-18T18:24:49.086Z,87.72
2023-01-18T18:27:17.552Z,87.62
2023-01-18T18:29:44.951Z,87.71
2023-01-18T18:32:18.314Z,87.60
2023-01-18T18:34:45.650Z,87.77
2023-01-18T18:37:15.114Z,88.21
2023-01-18T18:39:42.507Z,88.91
2023-01-18T18:42:09.776Z,87.91
2023-01-18T18:44:37.001Z,88.33
2023-01-18T18:47:06.716Z,88.59
2023-01-18T18:49:33.999Z,88.36
2023-01-18T18:52:02.386Z,88.49
2023-01-18T18:54:29.699Z,88.39
2023-01-18T18:56:57.060Z,87.42
2023-01-18T18:59:24.567Z,88.05
2023-01-18T19:01:52.423Z,87.91
2023-01-18T19:04:20.970Z,88.16
2023-01-18T19:06:48.272Z,87.45
2023-01-18T19:09:15.571Z,87.07
2023-01-18T19:11:50.560Z,88.38
2023-01-18T19:14:25.700Z,89.25
2023-01-18T19:16:54.106Z,89.10
2023-01-18T19:19:21.481Z,89.23
2023-01-18T19:21:49.404Z,91.44
2023-01-18T19:24:16.766Z,91.41
2023-01-18T19:26:45.044Z,91.39
2023-01-18T19:29:12.786Z,91.71
2023-01-18T19:31:40.311Z,94.18
2023-01-18T19:34:07.679Z,94.42
2023-01-18T19:36:35.353Z,95.29
2023-01-18T19:39:07.009Z,95.43
2023-01-18T19:41:36.584Z,96.23
2023-01-18T19:44:04.162Z,97.27
2023-01-18T19:46:31.560Z,97.40
2023-01-18T19:48:59.444Z,96.46
2023-01-18T19:51:27.797Z,97.96
2023-01-18T19:53:57.181Z,98.67
2023-01-18T19:56:25.697Z,98.33
2023-01-18T19:58:53.111Z,97.40
2023-01-18T20:01:35.079Z,98.64
2023-01-18T20:04:05.823Z,98.33
2023-01-18T20:06:33.756Z,97.47
2023-01-18T20:09:02.698Z,97.37
2023-01-18T20:11:29.982Z,97.63
2023-01-18T20:13:57.335Z,95.93
2023-01-18T20:16:24.719Z,96.10
2023-01-18T20:18:52.934Z,96.71
2023-01-18T20:21:20.191Z,98.99
2023-01-18T20:23:47.685Z,99.01
2023-01-18T20:26:20.059Z,98.78
2023-01-18T20:28:55.976Z,100.00
2023-01-18T20:31:23.340Z,100.00
2023-01-18T20:33:50.633Z,100.00
2023-01-18T20:36:18.045Z,100.00
2023-01-18T20:38:45.343Z,99.97
2023-01-18T20:41:12.817Z,99.79
2023-01-18T20:43:40.523Z,99.64
2023-01-18T20:46:10.093Z,100.00
2023-01-18T20:48:38.345Z,100.00
2023-01-18T20:51:07.563Z,100.00
2023-01-18T20:53:35.803Z,100.00
2023-01-18T20:56:11.981Z,100.00
2023-01-18T20:58:51.423Z,100.00
2023-01-18T21:01:19.314Z,100.00
2023-01-18T21:03:52.139Z,100.00
2023-01-18T21:06:19.366Z,100.00
2023-01-18T21:08:46.909Z,100.00
2023-01-18T21:11:22.847Z,100.00
2023-01-18T21:13:50.395Z,100.00
2023-01-18T21:16:18.269Z,100.00
2023-01-18T21:18:45.749Z,98.79
2023-01-18T21:21:13.409Z,98.49
2023-01-18T21:23:41.779Z,98.22
2023-01-18T21:26:12.085Z,98.55
2023-01-18T21:28:40.372Z,99.16
2023-01-18T21:31:08.334Z,98.51
2023-01-18T21:33:36.160Z,99.12
2023-01-18T21:36:13.919Z,99.22
2023-01-18T21:38:41.902Z,99.02
2023-01-18T21:41:28.805Z,99.23
2023-01-18T21:44:14.967Z,98.36
2023-01-18T21:46:51.272Z,97.33
2023-01-18T21:52:46.193Z,96.76
2023-01-18T21:55:15.545Z,97.23
2023-01-18T21:57:46.350Z,97.14
2023-01-18T22:00:14.689Z,96.63
2023-01-18T22:02:42.595Z,97.65
2023-01-18T22:05:13.462Z,97.89
2023-01-18T22:07:41.114Z,98.10
2023-01-18T22:10:09.478Z,97.63
2023-01-18T22:12:39.198Z,96.69
2023-01-18T22:15:07.237Z,96.89
2023-01-18T22:17:34.734Z,97.32
2023-01-18T22:20:02.503Z,98.32
2023-01-18T22:22:30.927Z,99.36
2023-01-18T22:25:02.242Z,99.54
2023-01-18T22:27:30.441Z,99.51
2023-01-18T22:30:00.041Z,99.93
2023-01-18T22:32:27.745Z,100.00
2023-01-18T22:34:55.572Z,100.00
2023-01-18T22:37:23.810Z,100.00
2023-01-18T22:39:51.812Z,100.00
2023-01-18T22:42:19.811Z,100.00
2023-01-18T22:44:48.132Z,100.00
2023-01-18T22:47:15.932Z,100.00
2023-01-18T22:49:43.334Z,100.00
2023-01-18T22:52:10.530Z,100.00
2023-01-18T22:54:37.853Z,100.00
2023-01-18T22:57:05.303Z,100.00
2023-01-18T22:59:32.614Z,100.00
2023-01-18T23:01:59.895Z,100.00
2023-01-18T23:04:35.650Z,100.00
2023-01-18T23:07:04.699Z,100.00
2023-01-18T23:09:32.143Z,100.00
2023-01-18T23:11:59.393Z,100.00
2023-01-18T23:14:45.212Z,100.00
2023-01-18T23:17:32.050Z,100.00
2023-01-18T23:19:59.372Z,100.00
2023-01-18T23:22:26.773Z,100.00
2023-01-18T23:24:54.681Z,100.00
2023-01-18T23:27:21.978Z,100.00
2023-01-18T23:29:55.532Z,100.00
2023-01-18T23:32:26.725Z,100.00
2023-01-18T23:34:55.456Z,100.00
2023-01-18T23:37:23.625Z,100.00
2023-01-18T23:40:09.545Z,100.00
2023-01-18T23:42:55.993Z,100.00
2023-01-18T23:45:42.055Z,100.00
2023-01-18T23:48:35.052Z,100.00
2023-01-18T23:51:21.655Z,100.00
2023-01-18T23:54:07.470Z,100.00
2023-01-18T23:56:34.797Z,100.00
2023-01-18T23:59:02.594Z,100.00
